createdAt,value
2023-02-08T00:02:03.869Z,100383.00
2023-02-08T00:04:36.990Z,100382.00
2023-02-08T00:07:09.592Z,100374.00
2023-02-08T00:09:43.027Z,100374.00
2023-02-08T00:12:16.006Z,100374.00
2023-02-08T00:14:48.769Z,100370.00
2023-02-08T00:17:21.852Z,100372.00
2023-02-08T00:19:54.755Z,100361.00
2023-02-08T00:22:27.852Z,100358.00
2023-02-08T00:25:00.790Z,100363.00
2023-02-08T00:27:33.749Z,100368.00
2023-02-08T00:30:06.671Z,100366.00
2023-02-08T00:32:39.621Z,100352.00
2023-02-08T00:35:12.530Z,100357.00
2023-02-08T00:37:45.309Z,100360.00
2023-02-08T00:40:21.030Z,100354.00
2023-02-08T00:42:53.912Z,100359.00
2023-02-08T00:45:27.027Z,100363.00
2023-02-08T00:48:00.226Z,100357.00
2023-02-08T00:50:33.052Z,100366.00
2023-02-08T00:53:06.081Z,100354.00
2023-02-08T00:55:40.051Z,100358.00
2023-02-08T00:58:13.458Z,100347.00
2023-02-08T01:00:46.988Z,100353.00
2023-02-08T01:03:19.879Z,100354.00
2023-02-08T01:05:52.737Z,100363.00
2023-02-08T01:08:25.576Z,100353.00
2023-02-08T01:11:00.044Z,100348.00
2023-02-08T01:13:32.902Z,100348.00
2023-02-08T01:16:13.839Z,100355.00
2023-02-08T01:18:48.703Z,100347.00
2023-02-08T01:21:24.075Z,100341.00
2023-02-08T01:23:57.062Z,100346.00
2023-02-08T01:26:30.398Z,100345.00
2023-02-08T01:29:04.147Z,100346.00
2023-02-08T01:31:38.963Z,100346.00
2023-02-08T01:34:12.826Z,100339.00
2023-02-08T01:36:50.199Z,100348.00
2023-02-08T01:39:23.238Z,100348.00
2023-02-08T01:41:56.194Z,100350.00
2023-02-08T01:45:04.345Z,100341.00
2023-02-08T01:47:37.327Z,100348.00
2023-02-08T01:50:10.633Z,100349.00
2023-02-08T01:52:43.902Z,100344.00
2023-02-08T01:55:29.329Z,100341.00
2023-02-08T01:58:04.380Z,100349.00
2023-02-08T02:00:37.328Z,100346.00
2023-02-08T02:03:11.385Z,100346.00
2023-02-08T02:05:46.071Z,100345.00
2023-02-08T02:08:19.202Z,100336.00
2023-02-08T02:10:53.290Z,100336.00
2023-02-08T02:13:28.382Z,100334.00
2023-02-08T02:16:01.381Z,100340.00
2023-02-08T02:18:35.870Z,100330.00
2023-02-08T02:21:34.766Z,100330.00
2023-02-08T02:24:12.480Z,100326.00
2023-02-08T02:26:52.609Z,100323.00
2023-02-08T02:29:27.826Z,100331.00
2023-02-08T02:32:39.344Z,100321.00
2023-02-08T02:35:35.452Z,100312.00
2023-02-08T02:38:13.195Z,100320.00
2023-02-08T02:41:11.784Z,100320.00
2023-02-08T02:43:55.787Z,100318.00
2023-02-08T02:46:45.288Z,100307.00
2023-02-08T02:49:32.265Z,100312.00
2023-02-08T02:52:16.435Z,100318.00
2023-02-08T02:54:56.730Z,100320.00
2023-02-08T02:57:35.478Z,100322.00
2023-02-08T03:00:15.944Z,100320.00
2023-02-08T03:02:49.129Z,100305.00
2023-02-08T03:05:22.154Z,100310.00
2023-02-08T03:08:12.633Z,100311.00
2023-02-08T03:10:50.591Z,100319.00
2023-02-08T03:13:49.470Z,100308.00
2023-02-08T03:16:30.412Z,100303.00
2023-02-08T03:19:17.929Z,100317.00
2023-02-08T03:22:10.401Z,100320.00
2023-02-08T03:25:00.981Z,100317.00
2023-02-08T03:27:38.993Z,100312.00
2023-02-08T03:30:40.198Z,100308.00
2023-02-08T03:33:24.085Z,100304.00
2023-02-08T03:36:02.207Z,100313.00
2023-02-08T03:38:42.225Z,100313.00
2023-02-08T03:41:16.785Z,100311.00
2023-02-08T03:43:54.571Z,100303.00
2023-02-08T03:46:35.387Z,100300.00
2023-02-08T03:49:09.960Z,100304.00
2023-02-08T03:51:44.170Z,100296.00
2023-02-08T03:54:19.326Z,100296.00
2023-02-08T03:56:53.981Z,100297.00
2023-02-08T03:59:28.572Z,100299.00
2023-02-08T04:02:06.267Z,100313.00
2023-02-08T04:04:40.806Z,100310.00
2023-02-08T04:07:13.990Z,100314.00
2023-02-08T04:09:46.751Z,100315.00
2023-02-08T04:12:19.610Z,100304.00
2023-02-08T04:14:52.578Z,100310.00
2023-02-08T04:17:25.748Z,100298.00
2023-02-08T04:19:58.621Z,100303.00
2023-02-08T04:22:34.168Z,100304.00
2023-02-08T04:25:06.982Z,100302.00
2023-02-08T04:27:39.895Z,100299.00
2023-02-08T04:30:13.357Z,100301.00
2023-02-08T04:32:46.321Z,100294.00
2023-02-08T04:35:19.283Z,100307.00
2023-02-08T04:37:52.503Z,100303.00
2023-02-08T04:40:25.854Z,100307.00
2023-02-08T04:42:58.773Z,100297.00
2023-02-08T04:45:32.852Z,100297.00
2023-02-08T04:48:10.979Z,100303.00
2023-02-08T04:50:43.385Z,100303.00
2023-02-08T04:53:16.538Z,100295.00
2023-02-08T04:55:49.455Z,100301.00
2023-02-08T04:58:22.252Z,100297.00
2023-02-08T05:00:55.195Z,100303.00
2023-02-08T05:03:29.388Z,100301.00
2023-02-08T05:06:03.095Z,100307.00
2023-02-08T05:08:35.963Z,100300.00
2023-02-08T05:11:09.188Z,100300.00
2023-02-08T05:13:42.025Z,100297.00
2023-02-08T05:16:15.036Z,100302.00
2023-02-08T05:18:51.036Z,100296.00
2023-02-08T05:21:25.230Z,100288.00
2023-02-08T05:23:58.230Z,100303.00
2023-02-08T05:26:31.295Z,100298.00
2023-02-08T05:29:04.351Z,100302.00
2023-02-08T05:31:37.549Z,100302.00
2023-02-08T05:34:10.533Z,100302.00
2023-02-08T05:36:43.470Z,100300.00
2023-02-08T05:39:16.255Z,100292.00
2023-02-08T05:41:49.009Z,100298.00
2023-02-08T05:44:22.541Z,100293.00
2023-02-08T05:46:55.436Z,100298.00
2023-02-08T05:49:28.413Z,100299.00
2023-02-08T05:52:01.457Z,100304.00
2023-02-08T05:54:34.351Z,100293.00
2023-02-08T05:57:07.380Z,100298.00
2023-02-08T05:59:40.714Z,100301.00
2023-02-08T06:02:13.904Z,100288.00
2023-02-08T06:04:46.823Z,100302.00
2023-02-08T06:07:20.097Z,100303.00
2023-02-08T06:09:52.910Z,100307.00
2023-02-08T06:12:26.461Z,100308.00
2023-02-08T06:14:59.288Z,100315.00
2023-02-08T06:17:32.148Z,100315.00
2023-02-08T06:20:05.035Z,100323.00
2023-02-08T06:22:38.703Z,100319.00
2023-02-08T06:25:11.857Z,100324.00
2023-02-08T06:27:44.567Z,100335.00
2023-02-08T06:30:18.021Z,100340.00
2023-02-08T06:32:50.770Z,100322.00
2023-02-08T06:35:23.928Z,100324.00
2023-02-08T06:37:56.754Z,100337.00
2023-02-08T06:40:32.129Z,100343.00
2023-02-08T06:43:05.077Z,100351.00
2023-02-08T06:45:38.114Z,100343.00
2023-02-08T06:48:11.366Z,100344.00
2023-02-08T06:50:44.550Z,100350.00
2023-02-08T06:53:17.536Z,100351.00
2023-02-08T06:55:56.733Z,100350.00
2023-02-08T06:58:29.655Z,100346.00
2023-02-08T07:01:02.760Z,100352.00
2023-02-08T07:03:36.212Z,100354.00
2023-02-08T07:06:12.328Z,100360.00
2023-02-08T07:08:45.305Z,100359.00
2023-02-08T07:11:20.262Z,100356.00
2023-02-08T07:13:54.504Z,100356.00
2023-02-08T07:16:27.621Z,100364.00
2023-02-08T07:19:00.664Z,100370.00
2023-02-08T07:21:33.590Z,100378.00
2023-02-08T07:24:06.840Z,100376.00
2023-02-08T07:26:39.879Z,100380.00
2023-02-08T07:29:12.914Z,100376.00
2023-02-08T07:31:45.764Z,100382.00
2023-02-08T07:34:19.803Z,100376.00
2023-02-08T07:36:52.707Z,100390.00
2023-02-08T07:39:25.618Z,100389.00
2023-02-08T07:41:58.606Z,100395.00
2023-02-08T07:44:34.622Z,100400.00
2023-02-08T07:47:07.433Z,100397.00
2023-02-08T07:49:40.410Z,100398.00
2023-02-08T07:52:13.397Z,100415.00
2023-02-08T07:54:46.336Z,100412.00
2023-02-08T07:57:20.567Z,100422.00
2023-02-08T07:59:54.220Z,100424.00
2023-02-08T08:02:27.981Z,100423.00
2023-02-08T08:05:00.808Z,100423.00
2023-02-08T08:07:33.906Z,100423.00
2023-02-08T08:10:06.936Z,100426.00
2023-02-08T08:12:39.950Z,100436.00
2023-02-08T08:15:13.348Z,100445.00
2023-02-08T08:17:46.292Z,100440.00
2023-02-08T08:20:23.792Z,100439.00
2023-02-08T08:22:56.781Z,100450.00
2023-02-08T08:25:29.601Z,100453.00
2023-02-08T08:28:02.627Z,100462.00
2023-02-08T08:30:35.430Z,100463.00
2023-02-08T08:33:08.857Z,100461.00
2023-02-08T08:35:42.117Z,100462.00
2023-02-08T08:38:15.146Z,100460.00
2023-02-08T08:40:47.988Z,100464.00
2023-02-08T08:43:21.247Z,100470.00
2023-02-08T08:45:54.098Z,100478.00
2023-02-08T08:48:26.935Z,100489.00
2023-02-08T08:51:00.397Z,100485.00
2023-02-08T08:53:33.414Z,100492.00
2023-02-08T08:56:06.286Z,100489.00
2023-02-08T08:58:39.135Z,100484.00
2023-02-08T09:01:12.285Z,100484.00
2023-02-08T09:03:46.030Z,100490.00
2023-02-08T09:06:18.963Z,100496.00
2023-02-08T09:08:52.298Z,100496.00
2023-02-08T09:11:25.094Z,100501.00
2023-02-08T09:13:58.181Z,100495.00
2023-02-08T09:16:31.066Z,100497.00
2023-02-08T09:19:05.601Z,100498.00
2023-02-08T09:21:38.619Z,100503.00
2023-02-08T09:24:11.976Z,100502.00
2023-02-08T09:26:44.885Z,100497.00
2023-02-08T09:29:18.019Z,100501.00
2023-02-08T09:31:51.092Z,100510.00
2023-02-08T09:34:24.079Z,100511.00
2023-02-08T09:36:57.120Z,100509.00
2023-02-08T09:39:35.088Z,100505.00
2023-02-08T09:42:26.420Z,100501.00
2023-02-08T09:45:04.308Z,100510.00
2023-02-08T09:47:39.052Z,100505.00
2023-02-08T09:50:44.314Z,100502.00
2023-02-08T09:53:34.522Z,100502.00
2023-02-08T09:56:09.566Z,100503.00
2023-02-08T09:58:43.591Z,100507.00
2023-02-08T10:01:24.257Z,100510.00
2023-02-08T10:04:05.253Z,100512.00
2023-02-08T10:06:38.264Z,100521.00
2023-02-08T10:09:12.937Z,100504.00
2023-02-08T10:11:53.252Z,100516.00
2023-02-08T10:14:37.341Z,100514.00
2023-02-08T10:17:46.901Z,100510.00
2023-02-08T10:20:24.536Z,100508.00
2023-02-08T10:23:26.387Z,100515.00
2023-02-08T10:26:17.902Z,100523.00
2023-02-08T10:29:18.762Z,100523.00
2023-02-08T10:32:20.883Z,100521.00
2023-02-08T10:34:55.523Z,100513.00
2023-02-08T10:37:39.168Z,100517.00
2023-02-08T10:40:31.846Z,100509.00
2023-02-08T10:43:26.082Z,100519.00
2023-02-08T10:46:21.990Z,100518.00
2023-02-08T10:49:05.679Z,100520.00
2023-02-08T10:51:39.060Z,100511.00
2023-02-08T10:54:16.773Z,100515.00
2023-02-08T10:56:58.120Z,100516.00
2023-02-08T10:59:35.836Z,100521.00
2023-02-08T11:02:10.615Z,100521.00
2023-02-08T11:04:45.674Z,100522.00
2023-02-08T11:07:25.614Z,100527.00
2023-02-08T11:09:58.852Z,100529.00
2023-02-08T11:12:31.653Z,100526.00
2023-02-08T11:15:04.310Z,100523.00
2023-02-08T11:17:38.024Z,100520.00
2023-02-08T11:20:12.612Z,100521.00
2023-02-08T11:22:47.226Z,100526.00
2023-02-08T11:25:37.259Z,100523.00
2023-02-08T11:28:11.775Z,100536.00
2023-02-08T11:30:44.778Z,100532.00
2023-02-08T11:33:22.095Z,100531.00
2023-02-08T11:36:02.921Z,100536.00
2023-02-08T11:38:37.594Z,100533.00
2023-02-08T11:41:12.359Z,100532.00
2023-02-08T11:43:45.411Z,100533.00
2023-02-08T11:46:19.635Z,100532.00
2023-02-08T11:48:53.649Z,100533.00
2023-02-08T11:51:37.496Z,100530.00
2023-02-08T11:54:10.919Z,100530.00
2023-02-08T11:56:43.794Z,100525.00
2023-02-08T11:59:21.350Z,100526.00
2023-02-08T12:01:54.377Z,100536.00
2023-02-08T12:04:27.309Z,100543.00
2023-02-08T12:07:26.858Z,100535.00
2023-02-08T12:10:25.949Z,100532.00
2023-02-08T12:13:06.859Z,100535.00
2023-02-08T12:15:57.399Z,100526.00
2023-02-08T12:18:39.276Z,100524.00
2023-02-08T12:21:32.088Z,100527.00
2023-02-08T12:24:23.435Z,100506.00
2023-02-08T12:27:01.094Z,100512.00
2023-02-08T12:29:52.006Z,100506.00
2023-02-08T12:32:36.265Z,100501.00
2023-02-08T12:35:21.920Z,100513.00
2023-02-08T12:38:06.721Z,100508.00
2023-02-08T12:40:54.547Z,100514.00
2023-02-08T12:43:34.983Z,100517.00
2023-02-08T12:46:28.130Z,100517.00
2023-02-08T12:49:38.037Z,100517.00
2023-02-08T12:52:35.702Z,100513.00
2023-02-08T12:55:28.769Z,100521.00
2023-02-08T12:58:21.756Z,100504.00
2023-02-08T13:00:56.553Z,100514.00
2023-02-08T13:03:52.448Z,100513.00
2023-02-08T13:06:33.262Z,100516.00
2023-02-08T13:09:17.712Z,100518.00
2023-02-08T13:12:02.042Z,100514.00
2023-02-08T13:14:46.011Z,100522.00
2023-02-08T13:17:32.813Z,100514.00
2023-02-08T13:20:10.490Z,100519.00
2023-02-08T13:22:44.805Z,100514.00
2023-02-08T13:25:22.607Z,100519.00
2023-02-08T13:27:56.123Z,100519.00
2023-02-08T13:30:29.405Z,100522.00
2023-02-08T13:33:03.645Z,100522.00
2023-02-08T13:35:37.541Z,100518.00
2023-02-08T13:38:12.304Z,100519.00
2023-02-08T13:40:45.616Z,100516.00
2023-02-08T13:43:35.127Z,100518.00
2023-02-08T13:46:02.592Z,100526.00
2023-02-08T13:48:52.579Z,100518.00
2023-02-08T13:51:37.555Z,100524.00
2023-02-08T13:54:15.240Z,100514.00
2023-02-08T13:56:53.266Z,100513.00
2023-02-08T13:59:37.240Z,100510.00
2023-02-08T14:02:19.331Z,100505.00
2023-02-08T14:04:56.920Z,100510.00
2023-02-08T14:07:32.149Z,100506.00
2023-02-08T14:10:09.798Z,100514.00
2023-02-08T14:13:01.038Z,100500.00
2023-02-08T14:15:35.656Z,100510.00
2023-02-08T14:18:10.795Z,100508.00
2023-02-08T14:20:44.692Z,100503.00
2023-02-08T14:23:32.846Z,100510.00
2023-02-08T14:26:07.721Z,100509.00
2023-02-08T14:28:45.587Z,100508.00
2023-02-08T14:31:20.954Z,100509.00
2023-02-08T14:33:55.762Z,100508.00
2023-02-08T14:36:36.530Z,100509.00
2023-02-08T14:39:31.030Z,100509.00
2023-02-08T14:42:10.698Z,100502.00
2023-02-08T14:44:47.298Z,100509.00
2023-02-08T14:47:35.641Z,100493.00
2023-02-08T14:50:19.589Z,100502.00
2023-02-08T14:53:03.202Z,100492.00
2023-02-08T14:55:54.944Z,100498.00
2023-02-08T14:58:32.712Z,100503.00
2023-02-08T15:01:07.529Z,100498.00
2023-02-08T15:03:42.229Z,100499.00
2023-02-08T15:06:20.057Z,100506.00
2023-02-08T15:09:00.634Z,100500.00
2023-02-08T15:11:35.204Z,100495.00
2023-02-08T15:14:09.021Z,100504.00
2023-02-08T15:16:46.887Z,100514.00
2023-02-08T15:19:40.709Z,100520.00
2023-02-08T15:22:31.408Z,100524.00
2023-02-08T15:25:09.140Z,100523.00
2023-02-08T15:27:41.971Z,100531.00
2023-02-08T15:30:35.324Z,100525.00
2023-02-08T15:33:13.778Z,100531.00
2023-02-08T15:35:48.662Z,100521.00
2023-02-08T15:38:23.639Z,100532.00
2023-02-08T15:41:07.967Z,100520.00
2023-02-08T15:43:42.126Z,100522.00
2023-02-08T15:46:29.891Z,100523.00
2023-02-08T15:49:03.313Z,100519.00
2023-02-08T15:51:36.220Z,100530.00
2023-02-08T15:54:10.418Z,100529.00
2023-02-08T15:56:43.611Z,100523.00
2023-02-08T15:59:18.353Z,100521.00
2023-02-08T16:01:54.448Z,100527.00
2023-02-08T16:04:27.712Z,100523.00
2023-02-08T16:07:01.582Z,100523.00
2023-02-08T16:09:34.699Z,100527.00
2023-02-08T16:12:07.557Z,100530.00
2023-02-08T16:14:52.151Z,100528.00
2023-02-08T16:17:34.862Z,100527.00
2023-02-08T16:20:08.700Z,100536.00
2023-02-08T16:22:41.860Z,100525.00
2023-02-08T16:25:22.649Z,100534.00
2023-02-08T16:27:55.463Z,100530.00
2023-02-08T16:30:28.687Z,100538.00
2023-02-08T16:33:01.687Z,100531.00
2023-02-08T16:35:35.411Z,100536.00
2023-02-08T16:38:11.566Z,100526.00
2023-02-08T16:40:53.303Z,100534.00
2023-02-08T16:43:28.250Z,100530.00
2023-02-08T16:46:22.718Z,100535.00
2023-02-08T16:48:57.593Z,100543.00
2023-02-08T16:51:32.306Z,100540.00
2023-02-08T16:54:10.323Z,100538.00
2023-02-08T16:56:44.322Z,100547.00
2023-02-08T16:59:17.973Z,100543.00
2023-02-08T17:01:52.130Z,100541.00
2023-02-08T17:04:26.812Z,100539.00
2023-02-08T17:06:59.070Z,100544.00
2023-02-08T17:09:32.318Z,100543.00
2023-02-08T17:12:20.380Z,100549.00
2023-02-08T17:14:39.789Z,100546.00
2023-02-08T17:17:13.318Z,100552.00
2023-02-08T17:19:46.394Z,100552.00
2023-02-08T17:22:18.980Z,100559.00
2023-02-08T17:24:51.817Z,100563.00
2023-02-08T17:27:24.911Z,100563.00
2023-02-08T17:29:57.814Z,100567.00
2023-02-08T17:32:30.644Z,100578.00
2023-02-08T17:35:03.843Z,100576.00
2023-02-08T17:37:36.720Z,100579.00
2023-02-08T17:40:09.832Z,100581.00
2023-02-08T17:42:42.841Z,100587.00
2023-02-08T17:45:15.883Z,100587.00
2023-02-08T17:47:48.850Z,100588.00
2023-02-08T17:50:22.250Z,100587.00
2023-02-08T17:52:55.061Z,100597.00
2023-02-08T17:55:32.550Z,100601.00
2023-02-08T17:58:05.518Z,100601.00
2023-02-08T18:00:38.470Z,100601.00
2023-02-08T18:03:11.309Z,100600.00
2023-02-08T18:05:44.251Z,100602.00
2023-02-08T18:08:16.960Z,100608.00
2023-02-08T18:10:50.000Z,100613.00
2023-02-08T18:13:23.563Z,100611.00
2023-02-08T18:15:56.866Z,100615.00
2023-02-08T18:18:29.721Z,100613.00
2023-02-08T18:21:02.427Z,100615.00
2023-02-08T18:23:35.391Z,100621.00
2023-02-08T18:26:13.225Z,100618.00
2023-02-08T18:28:45.870Z,100621.00
2023-02-08T18:31:21.807Z,100627.00
2023-02-08T18:33:55.922Z,100618.00
2023-02-08T18:36:29.457Z,100615.00
2023-02-08T18:39:02.976Z,100630.00
2023-02-08T18:41:36.026Z,100618.00
2023-02-08T18:44:09.353Z,100629.00
2023-02-08T18:46:42.304Z,100636.00
2023-02-08T18:49:17.213Z,100631.00
2023-02-08T18:51:50.397Z,100631.00
2023-02-08T18:54:23.369Z,100640.00
2023-02-08T18:57:01.959Z,100640.00
2023-02-08T18:59:35.102Z,100639.00
2023-02-08T19:02:09.026Z,100653.00
2023-02-08T19:04:42.611Z,100654.00
2023-02-08T19:07:15.613Z,100653.00
2023-02-08T19:09:48.697Z,100658.00
2023-02-08T19:12:23.019Z,100658.00
2023-02-08T19:14:56.404Z,100666.00
2023-02-08T19:17:29.532Z,100660.00
2023-02-08T19:20:02.421Z,100671.00
2023-02-08T19:22:35.569Z,100664.00
2023-02-08T19:25:09.225Z,100670.00
2023-02-08T19:27:42.292Z,100674.00
2023-02-08T19:30:16.908Z,100674.00
2023-02-08T19:32:54.963Z,100679.00
2023-02-08T19:35:28.250Z,100688.00
2023-02-08T19:38:01.072Z,100682.00
2023-02-08T19:40:34.584Z,100691.00
2023-02-08T19:43:07.693Z,100691.00
2023-02-08T19:45:40.696Z,100690.00
2023-02-08T19:48:13.612Z,100690.00
2023-02-08T19:50:46.605Z,100696.00
2023-02-08T19:53:19.625Z,100693.00
2023-02-08T19:56:13.343Z,100697.00
2023-02-08T19:58:46.600Z,100701.00
2023-02-08T20:01:21.594Z,100697.00
2023-02-08T20:03:56.841Z,100697.00
2023-02-08T20:06:34.612Z,100693.00
2023-02-08T20:09:08.523Z,100705.00
2023-02-08T20:11:56.484Z,100693.00
2023-02-08T20:14:41.270Z,100711.00
2023-02-08T20:17:12.029Z,100719.00
2023-02-08T20:19:49.426Z,100720.00
2023-02-08T20:22:22.689Z,100717.00
2023-02-08T20:24:55.980Z,100727.00
2023-02-08T20:27:30.846Z,100729.00
2023-02-08T20:30:03.807Z,100724.00
2023-02-08T20:32:36.831Z,100717.00
2023-02-08T20:35:10.264Z,100719.00
2023-02-08T20:37:43.685Z,100713.00
2023-02-08T20:40:18.083Z,100714.00
2023-02-08T20:42:51.509Z,100707.00
2023-02-08T20:45:24.523Z,100723.00
2023-02-08T20:47:57.473Z,100727.00
2023-02-08T20:50:31.631Z,100730.00
2023-02-08T20:53:05.996Z,100727.00
2023-02-08T20:55:38.956Z,100730.00
2023-02-08T20:58:11.998Z,100717.00
2023-02-08T21:00:46.486Z,100729.00
2023-02-08T21:03:19.094Z,100726.00
2023-02-08T21:05:52.085Z,100734.00
2023-02-08T21:08:25.030Z,100735.00
2023-02-08T21:10:58.222Z,100731.00
2023-02-08T21:13:31.163Z,100736.00
2023-02-08T21:16:05.884Z,100737.00
2023-02-08T21:18:39.425Z,100727.00
2023-02-08T21:21:13.550Z,100733.00
2023-02-08T21:23:47.165Z,100733.00
2023-02-08T21:26:21.606Z,100731.00
2023-02-08T21:28:59.137Z,100732.00
2023-02-08T21:31:38.340Z,100738.00
2023-02-08T21:34:11.462Z,100739.00
2023-02-08T21:36:44.496Z,100743.00
2023-02-08T21:39:17.421Z,100747.00
2023-02-08T21:41:50.964Z,100742.00
2023-02-08T21:44:24.002Z,100743.00
2023-02-08T21:46:57.254Z,100741.00
2023-02-08T21:49:47.269Z,100750.00
2023-02-08T21:52:37.789Z,100743.00
2023-02-08T21:55:10.906Z,100737.00
2023-02-08T21:57:43.877Z,100737.00
2023-02-08T22:00:17.931Z,100747.00
2023-02-08T22:02:51.049Z,100743.00
2023-02-08T22:05:26.691Z,100734.00
2023-02-08T22:08:01.351Z,100738.00
2023-02-08T22:10:35.596Z,100740.00
2023-02-08T22:13:08.502Z,100744.00
2023-02-08T22:15:42.533Z,100749.00
2023-02-08T22:18:15.472Z,100742.00
2023-02-08T22:20:48.423Z,100749.00
2023-02-08T22:23:21.395Z,100752.00
2023-02-08T22:25:54.411Z,100748.00
2023-02-08T22:28:27.514Z,100747.00
2023-02-08T22:31:00.411Z,100751.00
2023-02-08T22:33:33.442Z,100747.00
2023-02-08T22:36:08.350Z,100756.00
2023-02-08T22:38:42.277Z,100766.00
2023-02-08T22:41:16.764Z,100757.00
2023-02-08T22:43:50.066Z,100747.00
2023-02-08T22:46:23.230Z,100753.00
2023-02-08T22:48:56.294Z,100752.00
2023-02-08T22:51:29.305Z,100757.00
2023-02-08T22:54:02.029Z,100750.00
2023-02-08T22:56:35.058Z,100750.00
2023-02-08T22:59:07.942Z,100762.00
2023-02-08T23:01:41.671Z,100759.00
2023-02-08T23:04:14.740Z,100750.00
2023-02-08T23:06:47.981Z,100753.00
2023-02-08T23:09:21.004Z,100750.00
2023-02-08T23:11:54.213Z,100751.00
2023-02-08T23:14:27.061Z,100756.00
2023-02-08T23:17:00.207Z,100760.00
2023-02-08T23:19:33.226Z,100758.00
2023-02-08T23:22:06.332Z,100753.00
2023-02-08T23:24:43.320Z,100751.00
2023-02-08T23:27:16.190Z,100751.00
2023-02-08T23:29:49.113Z,100748.00
2023-02-08T23:32:22.056Z,100756.00
2023-02-08T23:34:54.969Z,100754.00
2023-02-08T23:37:27.851Z,100763.00
2023-02-08T23:40:01.208Z,100763.00
2023-02-08T23:42:34.275Z,100765.00
2023-02-08T23:45:07.350Z,100757.00
2023-02-08T23:47:41.349Z,100765.00
2023-02-08T23:50:15.370Z,100766.00
2023-02-08T23:52:48.180Z,100766.00
2023-02-08T23:55:21.035Z,100751.00
2023-02-08T23:57:53.883Z,100761.00
